Time;durP1;ratioP1;P1;durP2;ratioP2;P2;SDS_P1;SDS_P2;PMS_P1;PMS_P2;Temp;Humidity;BMP_temperature;BMP_pressure;BME280_temperature;BME280_humidity;BME280_pressure;Samples;Min_cycle;Max_cycle;Signal;HPM_P1;HPM_P2
2021/06/15 00:00:52;;;;;;;;;14.25;14.25;;;;;;;;3554605;39;113345;-76
2021/06/15 00:03:19;;;;;;;;;12.00;12.00;;;;;;;;3554095;39;113812;-76
2021/06/15 00:05:46;;;;;;;;;11.75;11.25;;;;;;;;3557120;39;112124;-76
2021/06/15 00:08:12;;;;;;;;;16.25;16.25;;;;;;;;3554079;39;114002;-76
2021/06/15 00:10:42;;;;;;;;;19.00;16.75;;;;;;;;3552252;39;112552;-77
2021/06/15 00:13:09;;;;;;;;;19.25;16.25;;;;;;;;3552466;39;113339;-76
2021/06/15 00:15:37;;;;;;;;;20.25;19.00;;;;;;;;3553561;39;113933;-76
2021/06/15 00:18:03;;;;;;;;;20.00;19.50;;;;;;;;3554411;39;112322;-75
2021/06/15 00:20:30;;;;;;;;;18.75;18.00;;;;;;;;3554487;39;113319;-74
2021/06/15 00:22:57;;;;;;;;;20.25;18.50;;;;;;;;3553829;39;113874;-76
2021/06/15 00:25:24;;;;;;;;;21.00;19.25;;;;;;;;3554357;39;111868;-76
2021/06/15 00:27:52;;;;;;;;;15.00;15.00;;;;;;;;3556433;39;113723;-75
2021/06/15 00:30:20;;;;;;;;;17.50;16.25;;;;;;;;3554564;39;111827;-75
2021/06/15 00:32:48;;;;;;;;;17.50;17.50;;;;;;;;3554130;39;113717;-76
2021/06/15 00:47:24;;;;;;;;;16.25;14.75;;;;;;;;3551935;39;111900;-77
2021/06/15 00:49:53;;;;;;;;;19.25;18.25;;;;;;;;3554329;39;113284;-77
2021/06/15 00:52:20;;;;;;;;;18.00;18.00;;;;;;;;3556714;39;113852;-77
2021/06/15 00:54:47;;;;;;;;;17.25;16.25;;;;;;;;3554620;39;113320;-76
2021/06/15 00:57:15;;;;;;;;;16.50;16.50;;;;;;;;3553895;39;113934;-75
2021/06/15 00:59:42;;;;;;;;;20.25;19.00;;;;;;;;3554361;39;112036;-76
2021/06/15 01:02:08;;;;;;;;;19.25;17.00;;;;;;;;3554058;39;113649;-75
2021/06/15 01:04:36;;;;;;;;;19.25;17.00;;;;;;;;3553843;39;114205;-75
2021/06/15 01:07:08;;;;;;;;;21.25;20.25;;;;;;;;3554125;39;112010;-74
2021/06/15 01:09:37;;;;;;;;;16.75;15.75;;;;;;;;3554113;39;113354;-74
2021/06/15 01:12:07;;;;;;;;;18.50;18.50;;;;;;;;3553567;39;114111;-74
2021/06/15 01:14:51;;;;;;;;;19.50;17.75;;;;;;;;3556773;39;112135;-72
2021/06/15 01:17:20;;;;;;;;;16.25;15.00;;;;;;;;3551425;39;114732;-73
2021/06/15 01:19:55;;;;;;;;;16.00;16.00;;;;;;;;3554225;39;111980;-75
2021/06/15 01:22:36;;;;;;;;;17.75;15.75;;;;;;;;3554370;39;113238;-75
2021/06/15 01:25:05;;;;;;;;;16.75;16.75;;;;;;;;3552067;39;114262;-75
2021/06/15 01:27:43;;;;;;;;;15.75;15.75;;;;;;;;3553549;39;112907;-74
2021/06/15 01:30:11;;;;;;;;;17.00;17.00;;;;;;;;3553838;39;113541;-74
2021/06/15 01:32:40;;;;;;;;;19.50;16.75;;;;;;;;3553580;39;113905;-74
2021/06/15 01:35:08;;;;;;;;;17.25;16.50;;;;;;;;3556389;39;112397;-74
2021/06/15 01:37:38;;;;;;;;;20.00;18.50;;;;;;;;3553570;39;113999;-74
2021/06/15 01:40:08;;;;;;;;;15.50;15.50;;;;;;;;3553977;39;111837;-74
2021/06/15 01:42:37;;;;;;;;;18.75;18.75;;;;;;;;3554087;39;113310;-74
2021/06/15 01:45:06;;;;;;;;;19.00;17.00;;;;;;;;3553433;39;113899;-75
2021/06/15 01:47:33;;;;;;;;;17.75;17.00;;;;;;;;3554096;39;112032;-75
2021/06/15 01:50:01;;;;;;;;;17.75;16.75;;;;;;;;3553892;39;113366;-75
2021/06/15 01:52:31;;;;;;;;;20.00;17.50;;;;;;;;3553656;39;114231;-75
2021/06/15 01:54:59;;;;;;;;;18.00;18.00;;;;;;;;3551993;39;111981;-75
2021/06/15 01:57:26;;;;;;;;;15.75;15.75;;;;;;;;3554287;39;112887;-74
2021/06/15 01:59:56;;;;;;;;;19.50;18.00;;;;;;;;3554005;39;111913;-75
2021/06/15 02:02:25;;;;;;;;;16.25;15.25;;;;;;;;3554070;39;113385;-75
2021/06/15 02:04:52;;;;;;;;;16.00;16.00;;;;;;;;3553701;39;113817;-76
2021/06/15 02:07:21;;;;;;;;;20.50;19.00;;;;;;;;3553951;39;111820;-76
2021/06/15 02:10:03;;;;;;;;;16.00;16.00;;;;;;;;3553992;39;113753;-76
2021/06/15 02:12:31;;;;;;;;;17.25;17.00;;;;;;;;3551658;39;114476;-76
2021/06/15 02:14:58;;;;;;;;;17.25;15.75;;;;;;;;3552292;39;112423;-76
2021/06/15 02:17:27;;;;;;;;;18.00;16.75;;;;;;;;3554227;39;113299;-76
2021/06/15 02:19:54;;;;;;;;;18.75;17.00;;;;;;;;3556017;39;113853;-76
2021/06/15 02:22:22;;;;;;;;;17.00;16.00;;;;;;;;3554266;39;113289;-76
2021/06/15 02:24:51;;;;;;;;;18.50;18.00;;;;;;;;3553720;39;113991;-76
2021/06/15 02:27:20;;;;;;;;;18.50;17.75;;;;;;;;3554088;39;113430;-76
2021/06/15 02:29:47;;;;;;;;;17.50;17.25;;;;;;;;3554087;39;113342;-76
2021/06/15 02:32:15;;;;;;;;;19.75;17.00;;;;;;;;3553426;39;114314;-77
2021/06/15 02:34:45;;;;;;;;;19.25;17.50;;;;;;;;3553835;39;112288;-76
2021/06/15 02:37:13;;;;;;;;;18.00;18.00;;;;;;;;3553568;39;113413;-75
2021/06/15 02:39:40;;;;;;;;;16.50;14.75;;;;;;;;3553159;39;113977;-76
2021/06/15 02:42:09;;;;;;;;;17.50;17.00;;;;;;;;3556272;39;112185;-76
2021/06/15 02:44:38;;;;;;;;;18.25;17.25;;;;;;;;3553340;39;113940;-76
2021/06/15 02:47:06;;;;;;;;;19.75;19.75;;;;;;;;3553431;39;111836;-75
2021/06/15 02:49:34;;;;;;;;;19.75;18.75;;;;;;;;3553796;39;113648;-76
2021/06/15 02:52:07;;;;;;;;;14.75;14.75;;;;;;;;3552902;39;113992;-74
2021/06/15 02:54:36;;;;;;;;;19.50;16.75;;;;;;;;3553506;39;111878;-75
2021/06/15 02:57:03;;;;;;;;;19.00;17.00;;;;;;;;3553483;39;113406;-75
2021/06/15 02:59:30;;;;;;;;;20.00;16.50;;;;;;;;3553064;39;113907;-76
2021/06/15 03:01:56;;;;;;;;;17.00;16.50;;;;;;;;3553620;39;111921;-75
2021/06/15 03:04:23;;;;;;;;;20.00;18.00;;;;;;;;3555933;39;113382;-78
2021/06/15 03:06:50;;;;;;;;;15.75;15.75;;;;;;;;3553511;39;112293;-76
2021/06/15 03:09:19;;;;;;;;;16.50;16.50;;;;;;;;3553154;39;113476;-75
2021/06/15 03:11:49;;;;;;;;;15.50;15.00;;;;;;;;3553274;39;113885;-76
2021/06/15 03:14:17;;;;;;;;;16.50;16.50;;;;;;;;3553135;39;111900;-75
2021/06/15 03:16:43;;;;;;;;;17.50;17.00;;;;;;;;3553386;39;113490;-76
2021/06/15 03:19:14;;;;;;;;;17.50;17.50;;;;;;;;3552660;39;114363;-76
2021/06/15 03:21:46;;;;;;;;;19.25;17.75;;;;;;;;3553281;39;112154;-75
2021/06/15 03:24:18;;;;;;;;;20.50;19.25;;;;;;;;3553133;39;113403;-75
2021/06/15 03:26:50;;;;;;;;;18.00;18.00;;;;;;;;3555220;39;111927;-77
2021/06/15 03:29:20;;;;;;;;;19.75;18.00;;;;;;;;3553102;39;113155;-76
2021/06/15 03:31:49;;;;;;;;;21.50;17.25;;;;;;;;3552824;39;113778;-75
2021/06/15 03:34:19;;;;;;;;;21.00;18.00;;;;;;;;3552991;39;111831;-76
2021/06/15 03:36:47;;;;;;;;;18.00;16.00;;;;;;;;3553165;39;113365;-76
2021/06/15 03:39:15;;;;;;;;;17.75;17.50;;;;;;;;3552603;39;113844;-75
2021/06/15 03:41:42;;;;;;;;;20.00;17.75;;;;;;;;3553066;39;112480;-75
2021/06/15 03:44:11;;;;;;;;;19.25;17.25;;;;;;;;3553153;39;113487;-76
2021/06/15 03:46:39;;;;;;;;;21.00;18.00;;;;;;;;3555432;39;114155;-75
2021/06/15 03:49:09;;;;;;;;;17.00;17.00;;;;;;;;3553085;39;113332;-75
2021/06/15 03:51:37;;;;;;;;;20.25;19.00;;;;;;;;3554334;39;113893;-75
2021/06/15 03:54:08;;;;;;;;;18.00;18.00;;;;;;;;3554580;39;111813;-75
2021/06/15 03:56:36;;;;;;;;;16.50;15.25;;;;;;;;3554692;39;113310;-76
2021/06/15 03:59:04;;;;;;;;;19.50;19.50;;;;;;;;3554124;39;114270;-76
2021/06/15 04:01:34;;;;;;;;;19.50;19.00;;;;;;;;3554580;39;111818;-76
2021/06/15 04:04:01;;;;;;;;;19.75;19.50;;;;;;;;3554463;39;113435;-76
2021/06/15 04:06:27;;;;;;;;;19.00;19.00;;;;;;;;3554348;39;114235;-76
2021/06/15 04:09:01;;;;;;;;;17.75;17.75;;;;;;;;3555265;39;111835;-76
2021/06/15 04:11:28;;;;;;;;;18.75;18.50;;;;;;;;3552272;39;113837;-75
2021/06/15 04:13:55;;;;;;;;;23.75;22.75;;;;;;;;3552550;39;111981;-75
2021/06/15 04:16:22;;;;;;;;;19.75;19.75;;;;;;;;3554185;39;113411;-75
2021/06/15 04:18:50;;;;;;;;;21.25;19.75;;;;;;;;3554014;39;114053;-75
2021/06/15 04:21:17;;;;;;;;;19.75;19.00;;;;;;;;3554325;39;111743;-75
2021/06/15 04:23:46;;;;;;;;;18.50;17.75;;;;;;;;3554614;39;113196;-75
2021/06/15 04:26:12;;;;;;;;;22.75;21.75;;;;;;;;3553786;39;114137;-75
2021/06/15 04:28:39;;;;;;;;;20.25;20.00;;;;;;;;3554498;39;111819;-74
2021/06/15 04:31:06;;;;;;;;;19.00;17.75;;;;;;;;3555704;39;112157;-75
2021/06/15 04:33:37;;;;;;;;;19.00;17.25;;;;;;;;3554242;39;111901;-76
2021/06/15 04:36:06;;;;;;;;;17.25;17.00;;;;;;;;3554449;39;113324;-76
2021/06/15 04:38:35;;;;;;;;;18.00;16.25;;;;;;;;3553989;39;113877;-75
2021/06/15 04:41:05;;;;;;;;;18.25;18.25;;;;;;;;3554460;39;112008;-76
2021/06/15 04:43:36;;;;;;;;;17.75;17.75;;;;;;;;3554617;39;113624;-77
2021/06/15 04:46:07;;;;;;;;;19.50;17.00;;;;;;;;3553856;39;114651;-75
2021/06/15 04:48:36;;;;;;;;;19.50;19.50;;;;;;;;3554240;39;112212;-76
2021/06/15 04:51:04;;;;;;;;;18.00;16.75;;;;;;;;3554169;39;113467;-75
2021/06/15 04:53:33;;;;;;;;;20.00;19.00;;;;;;;;3556740;39;113946;-78
2021/06/15 04:56:01;;;;;;;;;16.50;16.50;;;;;;;;3554114;39;113896;-75
2021/06/15 04:58:28;;;;;;;;;19.00;17.00;;;;;;;;3554044;39;114333;-75
2021/06/15 05:00:55;;;;;;;;;19.25;18.75;;;;;;;;3552346;39;111768;-75
2021/06/15 05:03:22;;;;;;;;;16.75;16.75;;;;;;;;3554376;39;113272;-76
2021/06/15 05:05:49;;;;;;;;;18.00;18.00;;;;;;;;3553833;39;114549;-74
2021/06/15 05:08:19;;;;;;;;;20.25;18.00;;;;;;;;3554227;39;112274;-75
2021/06/15 05:10:48;;;;;;;;;19.25;19.00;;;;;;;;3554453;39;113289;-77
2021/06/15 05:13:15;;;;;;;;;18.75;18.75;;;;;;;;3553931;39;113997;-77
2021/06/15 05:15:43;;;;;;;;;17.25;16.00;;;;;;;;3555194;39;111864;-77
2021/06/15 05:18:10;;;;;;;;;21.00;19.00;;;;;;;;3553941;39;115884;-76
2021/06/15 05:20:37;;;;;;;;;17.25;17.00;;;;;;;;3553897;39;111983;-76
2021/06/15 05:23:04;;;;;;;;;20.25;19.50;;;;;;;;3553936;39;113538;-76
2021/06/15 05:25:31;;;;;;;;;16.50;16.50;;;;;;;;3553519;39;114389;-74
2021/06/15 05:27:59;;;;;;;;;18.00;18.00;;;;;;;;3552402;39;112320;-76
2021/06/15 05:30:28;;;;;;;;;20.00;20.00;;;;;;;;3554650;39;113625;-75
2021/06/15 05:32:54;;;;;;;;;17.25;16.50;;;;;;;;3551927;39;114181;-76
2021/06/15 05:35:21;;;;;;;;;19.00;18.00;;;;;;;;3557275;39;111822;-78
2021/06/15 05:37:48;;;;;;;;;15.25;15.00;;;;;;;;3554102;39;114207;-78
2021/06/15 05:40:16;;;;;;;;;18.50;18.00;;;;;;;;3554050;39;112206;-74
2021/06/15 05:42:42;;;;;;;;;17.25;16.00;;;;;;;;3554258;39;113480;-76
2021/06/15 05:45:11;;;;;;;;;18.00;17.00;;;;;;;;3552271;39;114377;-73
2021/06/15 05:47:38;;;;;;;;;17.75;17.75;;;;;;;;3552388;39;112024;-73
2021/06/15 05:50:05;;;;;;;;;19.00;16.75;;;;;;;;3552515;39;113200;-73
2021/06/15 05:52:31;;;;;;;;;17.25;14.75;;;;;;;;3552095;39;113798;-73
2021/06/15 05:54:58;;;;;;;;;16.50;16.50;;;;;;;;3552324;39;112692;-73
2021/06/15 05:57:26;;;;;;;;;16.00;15.50;;;;;;;;3554576;39;113724;-73
2021/06/15 05:59:52;;;;;;;;;15.00;14.00;;;;;;;;3551371;39;111915;-73
2021/06/15 06:02:20;;;;;;;;;9.25;9.00;;;;;;;;3554067;39;113371;-73
2021/06/15 06:05:03;;;;;;;;;16.00;14.50;;;;;;;;3553799;39;113871;-73
2021/06/15 06:10:11;;;;;;;;;12.00;12.00;;;;;;;;3549222;39;112193;-72
2021/06/15 06:12:38;;;;;;;;;13.75;13.75;;;;;;;;3553230;39;113877;-74
2021/06/15 06:15:07;;;;;;;;;15.00;15.00;;;;;;;;3553921;39;111893;-74
2021/06/15 06:17:35;;;;;;;;;14.50;14.50;;;;;;;;3554064;39;113219;-73
2021/06/15 06:20:02;;;;;;;;;14.00;13.00;;;;;;;;3556080;39;114660;-76
2021/06/15 06:22:29;;;;;;;;;13.75;13.75;;;;;;;;3552032;39;113868;-74
2021/06/15 06:24:55;;;;;;;;;16.00;16.00;;;;;;;;3551985;39;113938;-74
2021/06/15 06:27:22;;;;;;;;;18.75;15.25;;;;;;;;3551613;39;111763;-73
2021/06/15 06:29:48;;;;;;;;;16.75;16.75;;;;;;;;3550991;39;112402;-73
2021/06/15 06:32:15;;;;;;;;;17.75;15.75;;;;;;;;3552213;39;114245;-74
2021/06/15 06:34:43;;;;;;;;;14.50;14.50;;;;;;;;3553043;39;112585;-72
2021/06/15 06:37:10;;;;;;;;;13.75;12.25;;;;;;;;3550034;39;112350;-73
2021/06/15 06:39:38;;;;;;;;;13.00;13.00;;;;;;;;3552588;39;113806;-71
2021/06/15 06:42:05;;;;;;;;;14.00;12.50;;;;;;;;3556078;39;112238;-71
2021/06/15 06:44:32;;;;;;;;;13.75;13.75;;;;;;;;3553239;39;113845;-73
2021/06/15 06:46:58;;;;;;;;;12.00;12.00;;;;;;;;3553305;39;111887;-72
2021/06/15 06:49:25;;;;;;;;;15.25;13.75;;;;;;;;3553419;39;113571;-73
2021/06/15 06:51:53;;;;;;;;;8.00;8.00;;;;;;;;3551932;39;112920;-73
2021/06/15 06:54:19;;;;;;;;;15.50;12.00;;;;;;;;3553349;39;111895;-74
2021/06/15 06:56:46;;;;;;;;;12.25;10.50;;;;;;;;3553535;39;113226;-73
2021/06/15 06:59:13;;;;;;;;;14.25;12.25;;;;;;;;3552670;39;114034;-73
2021/06/15 07:01:39;;;;;;;;;12.00;12.00;;;;;;;;3553451;39;112376;-73
2021/06/15 07:04:06;;;;;;;;;13.50;12.25;;;;;;;;3555360;39;113465;-74
2021/06/15 07:06:33;;;;;;;;;11.67;11.00;;;;;;;;3553533;39;112722;-73
2021/06/15 07:09:01;;;;;;;;;10.33;10.33;;;;;;;;3553074;39;113293;-74
2021/06/15 07:11:27;;;;;;;;;11.00;11.00;;;;;;;;3552777;39;114053;-74
2021/06/15 07:13:54;;;;;;;;;12.67;11.00;;;;;;;;3553000;39;111892;-75
2021/06/15 07:16:20;;;;;;;;;13.33;12.33;;;;;;;;3553462;39;113355;-74
2021/06/15 07:18:47;;;;;;;;;12.67;12.67;;;;;;;;3552615;39;113922;-73
2021/06/15 07:21:14;;;;;;;;;25.25;21.25;;;;;;;;3553058;39;112101;-74
2021/06/15 07:23:41;;;;;;;;;13.67;13.67;;;;;;;;3553075;39;113653;-74
2021/06/15 07:26:09;;;;;;;;;11.00;11.00;;;;;;;;3556200;39;113826;-76
2021/06/15 07:28:35;;;;;;;;;15.00;12.33;;;;;;;;3554750;39;113334;-74
2021/06/15 07:31:02;;;;;;;;;16.67;14.67;;;;;;;;3553990;39;113956;-75
2021/06/15 07:33:28;;;;;;;;;14.00;13.67;;;;;;;;3554425;39;111969;-75
2021/06/15 07:35:55;;;;;;;;;12.33;12.00;;;;;;;;3554333;39;113224;-75
2021/06/15 07:38:21;;;;;;;;;12.00;12.00;;;;;;;;3550976;39;114012;-75
2021/06/15 07:40:48;;;;;;;;;14.00;12.00;;;;;;;;3554053;39;112175;-76
2021/06/15 07:43:17;;;;;;;;;14.00;14.00;;;;;;;;3553098;39;116347;-76
2021/06/15 07:45:43;;;;;;;;;11.33;10.33;;;;;;;;3556645;39;113980;-77
2021/06/15 07:48:10;;;;;;;;;10.67;10.67;;;;;;;;3554484;39;113274;-76
2021/06/15 07:50:36;;;;;;;;;14.67;13.00;;;;;;;;3552907;39;113835;-74
2021/06/15 07:53:03;;;;;;;;;10.00;10.00;;;;;;;;3553361;39;112234;-73
2021/06/15 07:55:30;;;;;;;;;13.67;12.00;;;;;;;;3554539;39;113276;-76
2021/06/15 07:57:56;;;;;;;;;12.00;12.00;;;;;;;;3554134;39;114397;-76
2021/06/15 08:00:25;;;;;;;;;13.33;13.33;;;;;;;;3555951;39;111846;-86
2021/06/15 08:02:52;;;;;;;;;13.00;13.00;;;;;;;;3553240;39;113301;-80
2021/06/15 08:05:19;;;;;;;;;11.67;11.67;;;;;;;;3554498;39;114240;-77
2021/06/15 08:07:49;;;;;;;;;11.67;11.67;;;;;;;;3557176;39;112265;-78
2021/06/15 08:10:18;;;;;;;;;16.00;15.33;;;;;;;;3552260;39;113977;-78
2021/06/15 08:12:45;;;;;;;;;10.33;10.00;;;;;;;;3554189;39;112528;-77
2021/06/15 08:15:12;;;;;;;;;12.67;10.67;;;;;;;;3554394;39;113307;-78
2021/06/15 08:17:40;;;;;;;;;11.00;11.00;;;;;;;;3554063;39;113936;-78
2021/06/15 08:20:07;;;;;;;;;14.67;14.00;;;;;;;;3554212;39;112029;-78
2021/06/15 08:22:34;;;;;;;;;7.75;7.75;;;;;;;;3554329;39;113281;-78
2021/06/15 08:25:01;;;;;;;;;12.50;11.50;;;;;;;;3554008;39;114161;-78
2021/06/15 08:27:27;;;;;;;;;11.00;11.00;;;;;;;;3554738;39;112044;-78
2021/06/15 08:29:54;;;;;;;;;9.75;9.75;;;;;;;;3556648;39;113732;-78
2021/06/15 08:32:22;;;;;;;;;10.25;9.75;;;;;;;;3552673;39;111878;-78
2021/06/15 08:34:49;;;;;;;;;15.00;14.00;;;;;;;;3554808;39;113646;-78
2021/06/15 08:37:16;;;;;;;;;11.50;11.50;;;;;;;;3554145;39;114273;-78
2021/06/15 08:39:43;;;;;;;;;9.75;9.75;;;;;;;;3554825;39;111850;-78
2021/06/15 08:42:10;;;;;;;;;10.25;10.00;;;;;;;;3554531;39;113492;-78
2021/06/15 08:44:36;;;;;;;;;11.00;9.00;;;;;;;;3554354;39;113729;-78
2021/06/15 08:47:03;;;;;;;;;10.00;10.00;;;;;;;;3554323;39;111950;-78
2021/06/15 08:49:30;;;;;;;;;8.50;8.50;;;;;;;;3554450;39;113297;-78
2021/06/15 08:51:58;;;;;;;;;7.75;7.75;;;;;;;;3556464;39;114575;-79
2021/06/15 08:54:25;;;;;;;;;9.00;9.00;;;;;;;;3554705;39;113506;-78
2021/06/15 08:56:52;;;;;;;;;8.00;8.00;;;;;;;;3552015;39;113882;-78
2021/06/15 08:59:20;;;;;;;;;8.75;7.75;;;;;;;;3554631;39;112268;-78
2021/06/15 09:01:47;;;;;;;;;8.50;8.50;;;;;;;;3554700;39;113330;-78
2021/06/15 09:04:13;;;;;;;;;9.75;9.75;;;;;;;;3554117;39;113926;-78
2021/06/15 09:06:40;;;;;;;;;8.75;8.75;;;;;;;;3554635;39;112126;-78
2021/06/15 09:09:08;;;;;;;;;19.33;18.67;;;;;;;;3554118;39;113488;-78
2021/06/15 09:11:48;;;;;;;;;14.00;14.00;;;;;;;;3553931;39;114690;-78
2021/06/15 09:14:15;;;;;;;;;9.00;9.00;;;;;;;;3557173;39;112097;-78
2021/06/15 09:16:45;;;;;;;;;11.50;9.25;;;;;;;;3553901;39;113929;-79
2021/06/15 09:19:15;;;;;;;;;9.75;9.00;;;;;;;;3554264;39;111872;-79
2021/06/15 09:21:42;;;;;;;;;12.00;11.33;;;;;;;;3554418;39;113697;-79
2021/06/15 09:24:11;;;;;;;;;9.67;9.67;;;;;;;;3553815;39;113937;-78
2021/06/15 09:26:51;;;;;;;;;9.00;9.00;;;;;;;;3554367;39;112291;-78
2021/06/15 09:29:17;;;;;;;;;9.00;9.00;;;;;;;;3554657;39;113342;-79
2021/06/15 09:31:52;;;;;;;;;9.67;9.33;;;;;;;;3553794;39;114162;-78
2021/06/15 09:34:18;;;;;;;;;12.33;10.33;;;;;;;;3554627;39;112021;-79
2021/06/15 09:36:45;;;;;;;;;17.00;17.00;;;;;;;;3564180;39;113299;-78
2021/06/15 09:39:13;;;;;;;;;17.67;17.67;;;;;;;;3554490;39;111924;-79
2021/06/15 09:41:40;;;;;;;;;11.00;11.00;;;;;;;;3554314;39;113508;-78
2021/06/15 09:44:14;;;;;;;;;10.50;10.50;;;;;;;;3553822;39;112988;-78
2021/06/15 09:46:44;;;;;;;;;24.67;23.00;;;;;;;;3554238;39;112322;-79
2021/06/15 09:49:12;;;;;;;;;11.67;11.00;;;;;;;;3553613;39;113275;-78
2021/06/15 09:51:39;;;;;;;;;12.00;12.00;;;;;;;;3553779;39;113902;-79
2021/06/15 09:54:06;;;;;;;;;10.67;10.67;;;;;;;;3554058;39;111887;-77
2021/06/15 09:56:34;;;;;;;;;19.67;18.67;;;;;;;;3556531;39;113387;-77
2021/06/15 09:59:00;;;;;;;;;14.00;14.00;;;;;;;;3554041;39;111937;-77
2021/06/15 10:01:28;;;;;;;;;9.00;8.67;;;;;;;;3554185;39;113373;-77
2021/06/15 10:04:07;;;;;;;;;6.67;6.33;;;;;;;;3553716;39;114014;-82
2021/06/15 10:06:34;;;;;;;;;8.33;7.33;;;;;;;;3553923;39;112262;-74
2021/06/15 10:09:01;;;;;;;;;9.33;8.00;;;;;;;;3553828;39;113314;-74
2021/06/15 10:11:28;;;;;;;;;10.00;10.00;;;;;;;;3553524;39;113964;-75
2021/06/15 10:13:57;;;;;;;;;6.00;6.00;;;;;;;;3553946;39;112600;-74
2021/06/15 10:16:24;;;;;;;;;9.00;8.00;;;;;;;;3552131;39;113295;-74
2021/06/15 10:18:50;;;;;;;;;9.33;9.33;;;;;;;;3556059;39;113948;-74
2021/06/15 10:21:17;;;;;;;;;7.00;7.00;;;;;;;;3552054;39;116045;-74
2021/06/15 10:23:44;;;;;;;;;5.67;5.67;;;;;;;;3553157;39;115177;-74
2021/06/15 10:26:11;;;;;;;;;7.67;7.67;;;;;;;;3553553;39;111779;-74
2021/06/15 10:28:37;;;;;;;;;7.50;7.50;;;;;;;;3553723;39;113655;-75
2021/06/15 10:31:05;;;;;;;;;10.67;10.33;;;;;;;;3553070;39;113939;-75
2021/06/15 10:33:42;;;;;;;;;8.33;8.33;;;;;;;;3553540;39;111919;-75
2021/06/15 10:36:08;;;;;;;;;8.00;8.00;;;;;;;;3553318;39;113398;-76
2021/06/15 10:38:40;;;;;;;;;6.33;6.33;;;;;;;;3553380;39;113889;-74
2021/06/15 10:41:07;;;;;;;;;7.00;7.00;;;;;;;;3554584;39;112190;-75
2021/06/15 10:43:44;;;;;;;;;6.00;6.00;;;;;;;;3553249;39;113877;-75
2021/06/15 10:46:35;;;;;;;;;6.33;6.00;;;;;;;;3553324;39;111963;-75
2021/06/15 10:49:03;;;;;;;;;12.33;10.67;;;;;;;;3552101;39;113808;-75
2021/06/15 10:51:32;;;;;;;;;6.00;6.00;;;;;;;;3552906;39;113982;-75
2021/06/15 10:54:03;;;;;;;;;13.33;12.67;;;;;;;;3553216;39;112003;-76
2021/06/15 10:56:32;;;;;;;;;10.00;9.67;;;;;;;;3553566;39;113343;-76
2021/06/15 10:59:04;;;;;;;;;6.33;6.33;;;;;;;;3553202;39;113812;-76
2021/06/15 11:01:32;;;;;;;;;9.00;7.67;;;;;;;;3555022;39;112005;-74
2021/06/15 11:04:00;;;;;;;;;8.67;8.67;;;;;;;;3556680;39;113353;-76
2021/06/15 11:06:43;;;;;;;;;11.00;9.33;;;;;;;;3554868;39;112275;-79
2021/06/15 11:09:15;;;;;;;;;7.33;7.33;;;;;;;;3555028;39;113476;-80
2021/06/15 11:11:42;;;;;;;;;7.67;7.67;;;;;;;;3554572;39;113870;-82
2021/06/15 11:14:09;;;;;;;;;8.33;6.33;;;;;;;;3555137;39;112334;-79
2021/06/15 11:16:40;;;;;;;;;8.00;7.00;;;;;;;;3554921;39;113524;-80
2021/06/15 11:19:40;;;;;;;;;13.00;13.00;;;;;;;;3554245;39;114023;-79
2021/06/15 11:22:11;;;;;;;;;15.00;15.00;;;;;;;;3522348;39;112204;-79
2021/06/15 11:24:47;;;;;;;;;7.00;7.00;;;;;;;;3522565;39;113928;-79
2021/06/15 11:27:18;;;;;;;;;8.00;6.67;;;;;;;;3541933;39;114221;-81
2021/06/15 11:29:45;;;;;;;;;9.00;9.00;;;;;;;;3554794;39;113627;-80
2021/06/15 11:32:24;;;;;;;;;11.67;10.00;;;;;;;;3554325;39;113900;-80
2021/06/15 11:35:11;;;;;;;;;13.00;11.00;;;;;;;;3554185;39;111913;-81
2021/06/15 11:37:42;;;;;;;;;16.33;14.67;;;;;;;;3551198;39;113441;-82
2021/06/15 11:40:16;;;;;;;;;8.67;8.67;;;;;;;;3554702;39;114509;-75
2021/06/15 11:42:43;;;;;;;;;15.33;13.67;;;;;;;;3554793;39;111766;-75
2021/06/15 11:45:11;;;;;;;;;14.33;13.67;;;;;;;;3554645;39;113336;-75
2021/06/15 11:47:46;;;;;;;;;8.33;8.33;;;;;;;;3554514;39;113937;-75
2021/06/15 11:50:20;;;;;;;;;13.67;13.67;;;;;;;;3557549;39;112185;-76
2021/06/15 11:52:51;;;;;;;;;11.33;11.33;;;;;;;;3554123;39;112904;-77
2021/06/15 11:55:19;;;;;;;;;8.00;8.00;;;;;;;;3554574;39;111876;-77
2021/06/15 11:57:45;;;;;;;;;13.33;13.33;;;;;;;;3554246;39;113289;-78
2021/06/15 12:00:13;;;;;;;;;14.67;14.67;;;;;;;;3554033;39;114555;-78
2021/06/15 12:02:39;;;;;;;;;13.00;13.00;;;;;;;;3554985;39;111996;-80
2021/06/15 12:05:09;;;;;;;;;5.67;5.67;;;;;;;;3554327;39;113713;-77
2021/06/15 12:07:36;;;;;;;;;14.33;14.00;;;;;;;;3553799;39;114085;-78
2021/06/15 12:10:07;;;;;;;;;12.67;12.00;;;;;;;;3556850;39;112059;-78
2021/06/15 12:12:49;;;;;;;;;9.00;8.67;;;;;;;;3552517;39;114127;-78
2021/06/15 12:15:23;;;;;;;;;18.67;16.33;;;;;;;;3554231;39;111904;-78
2021/06/15 12:17:50;;;;;;;;;8.00;8.00;;;;;;;;3554014;39;113854;-79
2021/06/15 12:20:25;;;;;;;;;19.00;15.33;;;;;;;;3554939;39;114027;-79
2021/06/15 12:22:52;;;;;;;;;17.00;16.00;;;;;;;;3554276;39;111778;-79
2021/06/15 12:25:19;;;;;;;;;8.00;8.00;;;;;;;;3556899;39;113330;-80
2021/06/15 12:27:46;;;;;;;;;10.00;9.67;;;;;;;;3555482;39;113782;-79
2021/06/15 12:30:13;;;;;;;;;15.00;13.00;;;;;;;;3555993;39;112028;-78
2021/06/15 12:32:46;;;;;;;;;7.33;7.33;;;;;;;;3556573;39;113236;-78
2021/06/15 12:35:19;;;;;;;;;16.33;16.00;;;;;;;;3555161;39;112772;-78
2021/06/15 12:37:47;;;;;;;;;18.67;16.67;;;;;;;;3556175;39;113754;-79
2021/06/15 12:40:15;;;;;;;;;17.33;14.67;;;;;;;;3555171;39;114336;-79
2021/06/15 12:42:42;;;;;;;;;15.00;13.67;;;;;;;;3554170;39;112397;-79
2021/06/15 12:45:09;;;;;;;;;5.00;5.00;;;;;;;;3555527;39;112586;-79
2021/06/15 12:47:43;;;;;;;;;11.00;10.00;;;;;;;;3553804;39;114365;-80
2021/06/15 12:50:20;;;;;;;;;12.00;12.00;;;;;;;;3555278;39;112601;-79
2021/06/15 12:52:48;;;;;;;;;13.33;13.33;;;;;;;;3559564;39;113324;-79
2021/06/15 12:55:15;;;;;;;;;17.00;15.33;;;;;;;;3560800;39;114572;-78
2021/06/15 12:57:42;;;;;;;;;8.33;8.33;;;;;;;;3558637;39;113270;-81
2021/06/15 13:00:10;;;;;;;;;14.00;14.00;;;;;;;;3554383;39;113810;-79
2021/06/15 13:02:38;;;;;;;;;11.67;10.33;;;;;;;;3556068;39;111879;-79
2021/06/15 13:05:05;;;;;;;;;10.67;10.67;;;;;;;;3558025;39;113233;-82
2021/06/15 13:07:32;;;;;;;;;14.00;13.67;;;;;;;;3561081;39;113916;-85
2021/06/15 13:10:14;;;;;;;;;16.00;15.00;;;;;;;;3554829;39;113230;-81
2021/06/15 13:12:45;;;;;;;;;14.67;14.67;;;;;;;;3557719;39;113285;-84
2021/06/15 13:15:15;;;;;;;;;11.33;10.00;;;;;;;;3554824;39;114366;-83
2021/06/15 13:17:42;;;;;;;;;15.00;14.00;;;;;;;;3557015;39;112317;-77
2021/06/15 13:20:10;;;;;;;;;14.00;14.00;;;;;;;;3551510;39;114136;-78
2021/06/15 13:22:39;;;;;;;;;9.67;9.67;;;;;;;;3552918;39;112272;-78
2021/06/15 13:25:09;;;;;;;;;15.00;13.33;;;;;;;;3554090;39;113284;-78
2021/06/15 13:27:37;;;;;;;;;11.67;10.00;;;;;;;;3552178;39;114419;-78
2021/06/15 13:30:06;;;;;;;;;11.00;11.00;;;;;;;;3553820;39;112939;-77
2021/06/15 13:32:32;;;;;;;;;14.00;13.67;;;;;;;;3553598;39;113508;-77
2021/06/15 13:35:14;;;;;;;;;10.00;10.00;;;;;;;;3553512;39;114169;-87
2021/06/15 13:37:42;;;;;;;;;16.00;14.00;;;;;;;;3553107;39;112056;-77
2021/06/15 13:40:12;;;;;;;;;9.00;8.00;;;;;;;;3556710;39;113642;-77
2021/06/15 13:42:39;;;;;;;;;12.33;12.00;;;;;;;;3554229;39;112129;-77
2021/06/15 13:45:10;;;;;;;;;12.33;12.00;;;;;;;;3554114;39;113315;-80
2021/06/15 13:47:37;;;;;;;;;9.00;8.00;;;;;;;;3553624;39;114410;-78
2021/06/15 13:50:04;;;;;;;;;13.33;12.00;;;;;;;;3553804;39;112380;-76
2021/06/15 13:52:30;;;;;;;;;15.67;13.67;;;;;;;;3552849;39;113198;-76
2021/06/15 13:54:57;;;;;;;;;11.00;11.00;;;;;;;;3552077;39;114264;-76
2021/06/15 13:57:25;;;;;;;;;16.67;13.00;;;;;;;;3553659;39;112369;-76
2021/06/15 13:59:52;;;;;;;;;12.00;12.00;;;;;;;;3554265;39;113359;-79
2021/06/15 14:02:18;;;;;;;;;10.00;10.00;;;;;;;;3554207;39;111914;-77
2021/06/15 14:04:45;;;;;;;;;14.00;12.67;;;;;;;;3554288;39;113288;-77
2021/06/15 14:07:11;;;;;;;;;9.00;8.00;;;;;;;;3553538;39;114331;-76
2021/06/15 14:09:38;;;;;;;;;12.00;12.00;;;;;;;;3554431;39;112112;-76
2021/06/15 14:12:05;;;;;;;;;13.67;13.67;;;;;;;;3554035;39;113667;-79
2021/06/15 14:14:33;;;;;;;;;11.33;11.33;;;;;;;;3553964;39;113709;-79
2021/06/15 14:17:00;;;;;;;;;12.33;11.33;;;;;;;;3554319;39;111786;-79
2021/06/15 14:19:26;;;;;;;;;14.67;13.67;;;;;;;;3554424;39;113724;-77
2021/06/15 14:21:53;;;;;;;;;11.67;11.67;;;;;;;;3556448;39;114764;-80
2021/06/15 14:24:19;;;;;;;;;11.00;11.00;;;;;;;;3554479;39;113711;-83
2021/06/15 14:26:46;;;;;;;;;15.33;11.67;;;;;;;;3554095;39;114331;-82
2021/06/15 14:29:12;;;;;;;;;12.00;12.00;;;;;;;;3554476;39;113885;-81
2021/06/15 14:31:40;;;;;;;;;12.33;12.00;;;;;;;;3554159;39;113914;-76